createdAt,value
2023-03-19T00:00:32.432Z,8.32
2023-03-19T00:02:59.080Z,7.22
2023-03-19T00:05:26.006Z,8.45
2023-03-19T00:07:52.503Z,6.60
2023-03-19T00:10:22.300Z,7.95
2023-03-19T00:12:48.805Z,8.48
2023-03-19T00:15:15.996Z,6.95
2023-03-19T00:17:43.418Z,8.50
2023-03-19T00:20:12.222Z,7.68
2023-03-19T00:22:39.978Z,8.02
2023-03-19T00:25:08.369Z,8.90
2023-03-19T00:27:36.369Z,8.45
2023-03-19T00:30:04.821Z,7.05
2023-03-19T00:32:33.567Z,9.13
2023-03-19T00:35:00.190Z,11.32
2023-03-19T00:37:27.457Z,10.23
2023-03-19T00:39:54.050Z,8.48
2023-03-19T00:42:20.551Z,7.22
2023-03-19T00:44:47.182Z,10.13
2023-03-19T00:47:13.681Z,9.85
2023-03-19T00:49:40.218Z,7.72
2023-03-19T00:52:06.872Z,7.70
2023-03-19T00:54:34.573Z,8.52
2023-03-19T00:57:01.276Z,8.80
2023-03-19T00:59:27.877Z,9.57
2023-03-19T01:01:54.425Z,8.85
2023-03-19T01:04:21.723Z,10.77
2023-03-19T01:06:48.243Z,8.80
2023-03-19T01:09:14.980Z,11.02
2023-03-19T01:11:41.639Z,10.88
2023-03-19T01:14:08.162Z,9.23
2023-03-19T01:16:34.835Z,7.10
2023-03-19T01:19:03.165Z,10.77
2023-03-19T01:21:31.062Z,9.85
2023-03-19T01:23:58.776Z,8.77
2023-03-19T01:26:25.546Z,10.13
2023-03-19T01:28:52.450Z,10.90
2023-03-19T01:34:01.674Z,9.93
2023-03-19T01:36:28.076Z,8.45
2023-03-19T01:38:54.376Z,9.73
2023-03-19T01:41:20.942Z,8.82
2023-03-19T01:43:47.331Z,10.38
2023-03-19T01:46:27.070Z,10.60
2023-03-19T01:48:58.195Z,10.63
2023-03-19T01:51:28.447Z,14.10
2023-03-19T01:54:00.877Z,10.77
2023-03-19T01:56:32.652Z,11.32
2023-03-19T01:59:04.567Z,11.15
2023-03-19T02:01:35.871Z,8.63
2023-03-19T02:04:03.493Z,13.93
2023-03-19T02:06:30.839Z,10.45
2023-03-19T02:08:58.657Z,11.73
2023-03-19T02:11:26.151Z,8.40
2023-03-19T02:13:53.070Z,10.70
2023-03-19T02:16:19.671Z,9.23
2023-03-19T02:18:47.673Z,8.65
2023-03-19T02:21:19.903Z,10.10
2023-03-19T02:24:01.493Z,8.47
2023-03-19T02:26:29.737Z,9.02
2023-03-19T02:28:56.871Z,9.85
2023-03-19T02:31:24.096Z,8.45
2023-03-19T02:34:06.535Z,10.43
2023-03-19T02:36:37.686Z,10.40
2023-03-19T02:39:07.469Z,9.32
2023-03-19T02:41:34.352Z,8.35
2023-03-19T02:44:04.255Z,9.70
2023-03-19T02:46:30.840Z,7.95
2023-03-19T02:48:57.211Z,10.13
2023-03-19T02:51:23.613Z,9.75
2023-03-19T02:53:50.293Z,11.40
2023-03-19T02:56:16.668Z,10.57
2023-03-19T02:58:43.048Z,8.88
2023-03-19T03:01:09.479Z,11.45
2023-03-19T03:03:35.846Z,16.33
2023-03-19T03:06:02.272Z,10.32
2023-03-19T03:08:28.723Z,11.30
2023-03-19T03:10:55.056Z,12.65
2023-03-19T03:13:21.978Z,10.90
2023-03-19T03:15:48.480Z,15.20
2023-03-19T03:18:14.872Z,9.68
2023-03-19T03:20:41.750Z,15.05
2023-03-19T03:23:08.121Z,10.93
2023-03-19T03:25:35.945Z,9.23
2023-03-19T03:28:02.376Z,10.05
2023-03-19T03:30:29.148Z,9.93
2023-03-19T03:32:55.571Z,11.13
2023-03-19T03:35:22.622Z,11.80
2023-03-19T03:37:50.207Z,10.82
2023-03-19T03:40:17.078Z,10.40
2023-03-19T03:42:44.216Z,10.40
2023-03-19T03:45:12.086Z,10.05
2023-03-19T03:47:39.510Z,10.32
2023-03-19T03:50:07.079Z,13.00
2023-03-19T03:52:34.108Z,12.88
2023-03-19T03:55:01.130Z,11.73
2023-03-19T03:57:27.486Z,11.23
2023-03-19T03:59:54.546Z,10.63
2023-03-19T04:02:21.535Z,11.10
2023-03-19T04:04:48.706Z,9.60
2023-03-19T04:07:15.160Z,10.43
2023-03-19T04:09:42.042Z,12.00
2023-03-19T04:12:08.616Z,9.52
2023-03-19T04:14:36.553Z,9.82
2023-03-19T04:17:03.003Z,13.82
2023-03-19T04:19:29.556Z,11.60
2023-03-19T04:21:55.953Z,11.00
2023-03-19T04:24:22.285Z,14.27
2023-03-19T04:26:49.680Z,13.13
2023-03-19T04:29:16.629Z,11.07
2023-03-19T04:31:42.985Z,8.80
2023-03-19T04:34:09.339Z,12.73
2023-03-19T04:36:35.695Z,10.32
2023-03-19T04:39:02.069Z,10.23
2023-03-19T04:41:28.420Z,11.68
2023-03-19T04:43:54.780Z,11.05
2023-03-19T04:46:21.217Z,12.57
2023-03-19T04:48:47.636Z,12.60
2023-03-19T04:51:14.857Z,11.23
2023-03-19T04:53:41.231Z,10.63
2023-03-19T04:56:08.038Z,10.30
2023-03-19T04:58:35.169Z,11.45
2023-03-19T05:01:01.639Z,11.52
2023-03-19T05:03:28.087Z,11.40
2023-03-19T05:05:55.118Z,12.15
2023-03-19T05:08:21.543Z,9.75
2023-03-19T05:10:48.005Z,11.68
2023-03-19T05:13:14.355Z,13.63
2023-03-19T05:15:45.046Z,14.43
2023-03-19T05:18:12.705Z,9.90
2023-03-19T05:20:39.835Z,10.63
2023-03-19T05:23:06.612Z,11.10
2023-03-19T05:25:35.172Z,14.35
2023-03-19T05:28:02.097Z,11.23
2023-03-19T05:30:28.503Z,13.32
2023-03-19T05:32:58.395Z,12.98
2023-03-19T05:35:26.335Z,9.32
2023-03-19T05:37:52.763Z,12.07
2023-03-19T05:40:19.308Z,9.35
2023-03-19T05:42:45.834Z,12.95
2023-03-19T05:45:12.395Z,12.25
2023-03-19T05:47:39.217Z,9.77
2023-03-19T05:50:07.487Z,11.85
2023-03-19T05:52:34.205Z,12.75
2023-03-19T05:55:00.563Z,12.10
2023-03-19T05:57:27.241Z,10.60
2023-03-19T05:59:53.595Z,11.27
2023-03-19T06:02:20.421Z,13.30
2023-03-19T06:04:46.783Z,11.70
2023-03-19T06:07:13.432Z,14.07
2023-03-19T06:09:41.047Z,18.17
2023-03-19T06:12:08.292Z,22.63
2023-03-19T06:14:34.616Z,21.35
2023-03-19T06:17:01.086Z,19.80
2023-03-19T06:19:27.753Z,13.00
2023-03-19T06:21:54.179Z,11.02
2023-03-19T06:24:20.633Z,12.20
2023-03-19T06:26:47.066Z,9.82
2023-03-19T06:29:13.527Z,9.60
2023-03-19T06:31:41.585Z,15.75
2023-03-19T06:34:08.316Z,14.05
2023-03-19T06:36:34.733Z,10.38
2023-03-19T06:39:01.478Z,9.25
2023-03-19T06:41:27.828Z,9.27
2023-03-19T06:43:54.232Z,8.13
2023-03-19T06:46:20.721Z,12.02
2023-03-19T06:48:48.638Z,11.32
2023-03-19T06:51:14.981Z,8.48
2023-03-19T06:53:41.348Z,6.80
2023-03-19T06:56:07.768Z,8.48
2023-03-19T06:58:35.702Z,8.90
2023-03-19T07:01:02.348Z,12.73
2023-03-19T07:03:28.754Z,8.32
2023-03-19T07:05:55.151Z,11.63
2023-03-19T07:08:21.528Z,9.48
2023-03-19T07:10:48.066Z,11.90
2023-03-19T07:13:14.675Z,9.02
2023-03-19T07:15:41.308Z,10.68
2023-03-19T07:18:07.715Z,11.25
2023-03-19T07:20:34.312Z,12.25
2023-03-19T07:23:00.888Z,11.57
2023-03-19T07:25:27.350Z,9.40
2023-03-19T07:27:56.020Z,9.55
2023-03-19T07:30:22.751Z,9.15
2023-03-19T07:35:35.250Z,7.63
2023-03-19T07:38:02.673Z,8.07
2023-03-19T07:40:29.513Z,8.85
2023-03-19T07:42:56.010Z,10.95
2023-03-19T07:45:23.778Z,7.80
2023-03-19T07:47:51.574Z,9.90
2023-03-19T07:50:18.358Z,6.60
2023-03-19T07:52:48.354Z,8.10
2023-03-19T07:55:15.656Z,13.68
2023-03-19T07:57:42.190Z,9.63
2023-03-19T08:00:10.634Z,11.15
2023-03-19T08:02:37.227Z,12.05
2023-03-19T08:05:04.784Z,10.60
2023-03-19T08:07:32.357Z,11.80
2023-03-19T08:09:59.158Z,10.20
2023-03-19T08:12:26.137Z,8.50
2023-03-19T08:14:52.938Z,9.73
2023-03-19T08:17:19.527Z,9.85
2023-03-19T08:19:46.789Z,8.45
2023-03-19T08:22:13.575Z,10.85
2023-03-19T08:24:40.169Z,13.35
2023-03-19T08:27:07.841Z,10.80
2023-03-19T08:29:34.494Z,7.35
2023-03-19T08:32:01.440Z,11.18
2023-03-19T08:34:27.943Z,10.65
2023-03-19T08:36:54.426Z,9.15
2023-03-19T08:39:20.974Z,7.38
2023-03-19T08:41:47.419Z,9.27
2023-03-19T08:44:14.149Z,11.02
2023-03-19T08:46:42.362Z,12.63
2023-03-19T08:49:08.880Z,8.45
2023-03-19T08:51:35.351Z,8.65
2023-03-19T08:54:02.286Z,13.30
2023-03-19T08:56:28.790Z,11.30
2023-03-19T08:58:56.922Z,10.35
2023-03-19T09:01:24.331Z,10.45
2023-03-19T09:03:51.166Z,8.75
2023-03-19T09:06:17.775Z,13.27
2023-03-19T09:08:44.717Z,9.82
2023-03-19T09:11:11.604Z,11.35
2023-03-19T09:13:38.030Z,12.68
2023-03-19T09:16:04.856Z,11.13
2023-03-19T09:18:31.418Z,11.75
2023-03-19T09:20:58.291Z,10.27
2023-03-19T09:23:24.978Z,11.27
2023-03-19T09:25:51.474Z,9.32
2023-03-19T09:28:18.394Z,10.57
2023-03-19T09:30:49.878Z,12.68
2023-03-19T09:33:23.017Z,11.65
2023-03-19T09:35:52.648Z,11.20
2023-03-19T09:38:21.012Z,12.15
2023-03-19T09:41:04.814Z,11.32
2023-03-19T09:43:42.333Z,10.20
2023-03-19T09:46:24.486Z,11.02
2023-03-19T09:48:57.462Z,11.45
2023-03-19T09:51:44.989Z,11.40
2023-03-19T09:54:39.325Z,11.15
2023-03-19T09:57:08.866Z,10.55
2023-03-19T09:59:35.894Z,10.23
2023-03-19T10:02:40.795Z,9.60
2023-03-19T10:05:21.269Z,9.70
2023-03-19T10:08:01.402Z,9.32
2023-03-19T10:10:57.556Z,9.40
2023-03-19T10:13:58.542Z,9.40
2023-03-19T10:16:27.786Z,11.60
2023-03-19T10:18:59.931Z,8.00
2023-03-19T10:21:39.856Z,9.07
2023-03-19T10:24:22.472Z,11.00
2023-03-19T10:26:55.780Z,10.18
2023-03-19T10:29:24.281Z,9.68
2023-03-19T10:32:19.046Z,11.60
2023-03-19T10:34:51.078Z,11.07
2023-03-19T10:37:23.736Z,10.10
2023-03-19T10:39:52.651Z,11.88
2023-03-19T10:42:43.426Z,10.38
2023-03-19T10:45:28.463Z,10.68
2023-03-19T10:47:59.676Z,9.65
2023-03-19T10:50:34.526Z,9.77
2023-03-19T10:53:04.404Z,8.18
2023-03-19T10:55:31.813Z,7.38
2023-03-19T10:58:20.628Z,7.65
2023-03-19T11:00:48.754Z,7.38
2023-03-19T11:03:36.070Z,7.30
2023-03-19T11:06:23.742Z,6.63
2023-03-19T11:08:57.038Z,7.65
2023-03-19T11:11:26.471Z,7.20
2023-03-19T11:13:53.234Z,7.30
2023-03-19T11:16:19.926Z,6.78
2023-03-19T11:18:49.691Z,8.27
2023-03-19T11:21:28.968Z,8.85
2023-03-19T11:24:03.640Z,7.28
2023-03-19T11:26:31.069Z,7.45
2023-03-19T11:29:03.652Z,8.77
2023-03-19T11:31:54.363Z,7.20
2023-03-19T11:34:23.624Z,7.90
2023-03-19T11:37:10.340Z,6.80
2023-03-19T11:39:54.031Z,6.88
2023-03-19T11:42:32.567Z,7.30
2023-03-19T11:45:26.147Z,7.10
2023-03-19T11:48:01.591Z,8.85
2023-03-19T11:50:39.953Z,6.47
2023-03-19T11:53:24.742Z,6.95
2023-03-19T11:56:19.662Z,7.97
2023-03-19T11:59:05.622Z,8.02
2023-03-19T12:01:50.958Z,7.43
2023-03-19T12:04:47.434Z,9.05
2023-03-19T12:07:19.533Z,7.68
2023-03-19T12:09:49.523Z,8.43
2023-03-19T12:12:40.953Z,6.10
2023-03-19T12:15:17.165Z,6.53
2023-03-19T12:17:54.612Z,5.38
2023-03-19T12:20:27.732Z,5.10
2023-03-19T12:23:36.171Z,5.05
2023-03-19T12:26:07.101Z,3.70
2023-03-19T12:28:36.320Z,4.40
2023-03-19T12:31:27.970Z,4.35
2023-03-19T12:34:20.802Z,4.78
2023-03-19T12:37:09.128Z,4.00
2023-03-19T12:39:41.169Z,3.92
2023-03-19T12:42:13.399Z,3.97
2023-03-19T12:44:46.584Z,5.03
2023-03-19T12:47:31.469Z,3.90
2023-03-19T12:50:06.107Z,4.70
2023-03-19T12:52:38.682Z,6.10
2023-03-19T12:55:23.209Z,4.60
2023-03-19T12:58:00.114Z,4.18
2023-03-19T13:00:51.685Z,4.40
2023-03-19T13:03:53.397Z,7.55
2023-03-19T13:06:37.531Z,4.38
2023-03-19T13:09:29.055Z,5.72
2023-03-19T13:12:05.124Z,4.80
2023-03-19T13:15:02.486Z,4.22
2023-03-19T13:17:53.511Z,4.63
2023-03-19T13:20:26.028Z,5.57
2023-03-19T13:22:59.997Z,5.93
2023-03-19T13:25:50.654Z,7.53
2023-03-19T13:28:38.543Z,5.65
2023-03-19T13:31:06.760Z,5.30
2023-03-19T13:33:40.627Z,4.10
2023-03-19T13:36:14.919Z,6.30
2023-03-19T13:38:46.113Z,4.90
2023-03-19T13:41:39.534Z,7.13
2023-03-19T13:46:51.397Z,6.18
2023-03-19T13:49:28.386Z,5.20
2023-03-19T13:51:58.614Z,6.88
2023-03-19T13:54:43.504Z,5.90
2023-03-19T13:57:17.167Z,5.25
2023-03-19T13:59:46.848Z,5.18
2023-03-19T14:02:15.951Z,6.53
2023-03-19T14:04:52.263Z,5.13
2023-03-19T14:07:22.590Z,8.88
2023-03-19T14:10:04.559Z,5.68
2023-03-19T14:12:34.879Z,6.95
2023-03-19T14:15:18.277Z,4.97
2023-03-19T14:17:56.505Z,5.45
2023-03-19T14:20:36.629Z,4.88
2023-03-19T14:23:09.109Z,6.18
2023-03-19T14:25:54.154Z,5.40
2023-03-19T14:28:27.289Z,5.00
2023-03-19T14:30:55.923Z,7.03
2023-03-19T14:33:44.679Z,5.72
2023-03-19T14:36:18.006Z,5.90
2023-03-19T14:39:00.621Z,6.15
2023-03-19T14:41:32.474Z,6.22
2023-03-19T14:44:27.228Z,6.00
2023-03-19T14:47:30.433Z,5.80
2023-03-19T14:50:27.510Z,5.22
2023-03-19T14:53:03.206Z,6.15
2023-03-19T14:55:35.782Z,5.22
2023-03-19T14:58:02.724Z,5.32
2023-03-19T15:00:37.106Z,5.75
2023-03-19T15:03:03.566Z,5.75
2023-03-19T15:05:33.326Z,6.68
2023-03-19T15:08:07.395Z,3.92
2023-03-19T15:11:02.432Z,6.82
2023-03-19T15:13:50.932Z,3.83
2023-03-19T15:16:17.344Z,3.53
2023-03-19T15:18:43.831Z,5.50
2023-03-19T15:21:10.493Z,4.28
2023-03-19T15:23:40.387Z,3.85
2023-03-19T15:26:11.482Z,3.65
2023-03-19T15:28:54.000Z,4.55
2023-03-19T15:31:38.266Z,3.72
2023-03-19T15:34:24.537Z,4.55
2023-03-19T15:36:55.516Z,4.68
2023-03-19T15:39:27.214Z,4.35
2023-03-19T15:41:56.267Z,4.78
2023-03-19T15:44:36.355Z,4.63
2023-03-19T15:47:05.140Z,5.00
2023-03-19T15:49:38.271Z,5.60
2023-03-19T15:52:09.417Z,4.28
2023-03-19T15:54:35.884Z,4.75
2023-03-19T15:57:02.356Z,6.65
2023-03-19T15:59:31.449Z,6.25
2023-03-19T16:02:03.025Z,5.80
2023-03-19T16:04:30.520Z,6.07
2023-03-19T16:06:59.204Z,5.10
2023-03-19T16:09:27.082Z,4.70
2023-03-19T16:11:57.717Z,4.70
2023-03-19T16:14:33.401Z,7.13
2023-03-19T16:17:13.376Z,5.05
2023-03-19T16:19:55.955Z,4.93
2023-03-19T16:22:25.513Z,4.93
2023-03-19T16:24:53.820Z,5.90
2023-03-19T16:27:25.794Z,5.45
2023-03-19T16:29:59.754Z,5.75
2023-03-19T16:32:31.605Z,7.93
2023-03-19T16:35:10.803Z,5.60
2023-03-19T16:37:37.308Z,4.55
2023-03-19T16:40:13.018Z,6.18
2023-03-19T16:42:43.035Z,6.63
2023-03-19T16:45:18.115Z,5.82
2023-03-19T16:47:48.642Z,4.72
2023-03-19T16:50:17.420Z,5.75
2023-03-19T16:52:45.656Z,6.47
2023-03-19T16:55:19.594Z,4.85
2023-03-19T16:57:50.578Z,5.65
2023-03-19T17:00:17.963Z,6.15
2023-03-19T17:02:44.360Z,5.60
2023-03-19T17:05:14.912Z,5.25
2023-03-19T17:07:41.978Z,7.40
2023-03-19T17:10:17.072Z,5.97
2023-03-19T17:12:47.088Z,6.93
2023-03-19T17:15:23.064Z,6.20
2023-03-19T17:17:50.361Z,5.28
2023-03-19T17:20:38.242Z,6.20
2023-03-19T17:23:12.822Z,5.05
2023-03-19T17:25:39.843Z,5.38
2023-03-19T17:28:06.544Z,5.13
2023-03-19T17:30:33.875Z,7.32
2023-03-19T17:33:00.741Z,6.05
2023-03-19T17:35:27.260Z,5.78
2023-03-19T17:37:53.608Z,5.28
2023-03-19T17:40:27.334Z,5.00
2023-03-19T17:42:55.252Z,5.30
2023-03-19T17:45:27.438Z,7.15
2023-03-19T17:47:58.488Z,5.30
2023-03-19T17:50:31.398Z,5.80
2023-03-19T17:52:58.750Z,6.10
2023-03-19T17:55:28.231Z,8.02
2023-03-19T17:57:55.223Z,6.47
2023-03-19T18:00:23.904Z,5.97
2023-03-19T18:02:52.905Z,6.30
2023-03-19T18:05:26.287Z,5.43
2023-03-19T18:07:56.219Z,8.75
2023-03-19T18:10:27.424Z,6.35
2023-03-19T18:12:54.609Z,4.80
2023-03-19T18:15:22.155Z,5.25
2023-03-19T18:17:51.670Z,6.70
2023-03-19T18:20:21.271Z,7.80
2023-03-19T18:22:47.640Z,5.03
2023-03-19T18:25:20.923Z,9.95
2023-03-19T18:27:48.057Z,9.48
2023-03-19T18:30:18.494Z,10.13
2023-03-19T18:32:47.813Z,11.07
2023-03-19T18:35:16.306Z,13.10
2023-03-19T18:37:44.804Z,12.98
2023-03-19T18:40:20.255Z,10.90
2023-03-19T18:42:47.899Z,14.15
2023-03-19T18:45:15.795Z,16.40
2023-03-19T18:47:43.502Z,17.92
2023-03-19T18:50:12.853Z,17.38
2023-03-19T18:52:39.162Z,26.90
2023-03-19T18:55:05.901Z,27.05
2023-03-19T18:57:35.688Z,24.30
2023-03-19T19:00:02.174Z,24.80
2023-03-19T19:02:34.972Z,26.80
2023-03-19T19:05:01.663Z,24.98
2023-03-19T19:07:28.005Z,26.58
2023-03-19T19:09:54.431Z,26.98
2023-03-19T19:12:21.032Z,29.55
2023-03-19T19:14:47.844Z,33.60
2023-03-19T19:17:21.037Z,30.13
2023-03-19T19:19:47.406Z,30.73
2023-03-19T19:22:18.450Z,29.58
2023-03-19T19:24:45.153Z,29.73
2023-03-19T19:27:25.853Z,25.05
2023-03-19T19:29:53.056Z,28.48
2023-03-19T19:32:26.774Z,26.77
2023-03-19T19:37:24.951Z,25.05
2023-03-19T19:39:51.502Z,28.02
2023-03-19T19:42:21.181Z,29.05
2023-03-19T19:44:52.772Z,24.85
2023-03-19T19:47:19.450Z,25.67
2023-03-19T19:49:46.218Z,27.40
2023-03-19T19:52:18.334Z,24.58
2023-03-19T19:54:46.227Z,28.40
2023-03-19T19:57:27.304Z,26.23
2023-03-19T19:59:55.385Z,26.48
2023-03-19T20:02:31.636Z,26.45
2023-03-19T20:04:58.986Z,22.55
2023-03-19T20:07:25.671Z,24.58
2023-03-19T20:09:52.107Z,21.83
2023-03-19T20:12:27.046Z,26.05
2023-03-19T20:14:53.546Z,27.55
2023-03-19T20:17:23.762Z,26.42
2023-03-19T20:19:50.829Z,25.77
2023-03-19T20:22:17.543Z,27.88
2023-03-19T20:24:44.997Z,26.98
2023-03-19T20:27:20.148Z,26.00
2023-03-19T20:29:46.850Z,24.30
2023-03-19T20:32:33.370Z,28.38
2023-03-19T20:35:03.993Z,22.15
2023-03-19T20:37:30.910Z,23.02
2023-03-19T20:39:58.464Z,24.73
2023-03-19T20:42:26.184Z,26.95
2023-03-19T20:44:57.708Z,23.73
2023-03-19T20:47:25.746Z,23.05
2023-03-19T20:49:53.362Z,26.38
2023-03-19T20:52:20.337Z,20.50
2023-03-19T20:54:48.254Z,23.98
2023-03-19T20:57:24.995Z,24.10
2023-03-19T20:59:51.451Z,24.48
2023-03-19T21:02:20.852Z,23.75
2023-03-19T21:04:48.425Z,25.75
2023-03-19T21:07:35.263Z,26.60
2023-03-19T21:10:21.732Z,23.15
2023-03-19T21:12:48.194Z,22.63
2023-03-19T21:15:15.333Z,25.38
2023-03-19T21:17:42.214Z,25.75
2023-03-19T21:20:17.418Z,27.27
2023-03-19T21:22:46.472Z,25.45
2023-03-19T21:25:19.962Z,23.50
2023-03-19T21:27:51.061Z,26.30
2023-03-19T21:30:18.967Z,24.45
2023-03-19T21:32:45.782Z,28.38
2023-03-19T21:35:20.741Z,27.08
2023-03-19T21:37:48.354Z,30.08
2023-03-19T21:40:17.084Z,30.02
2023-03-19T21:42:46.400Z,25.33
2023-03-19T21:45:23.485Z,29.42
2023-03-19T21:47:50.067Z,25.02
2023-03-19T21:50:19.405Z,23.52
2023-03-19T21:52:58.742Z,23.80
2023-03-19T21:55:27.560Z,28.00
2023-03-19T21:57:57.380Z,29.20
2023-03-19T22:00:24.600Z,26.42
2023-03-19T22:02:51.225Z,28.77
2023-03-19T22:05:22.357Z,26.63
2023-03-19T22:07:49.445Z,27.73
2023-03-19T22:10:16.432Z,32.97
2023-03-19T22:12:44.317Z,31.02
2023-03-19T22:15:36.338Z,36.45
2023-03-19T22:18:11.984Z,31.92
2023-03-19T22:20:38.434Z,40.47
2023-03-19T22:23:04.973Z,38.90
2023-03-19T22:25:35.531Z,35.97
2023-03-19T22:28:16.391Z,41.70
2023-03-19T22:30:43.950Z,42.30
2023-03-19T22:33:19.448Z,35.63
2023-03-19T22:35:46.364Z,32.10
2023-03-19T22:38:12.935Z,35.17
2023-03-19T22:40:40.171Z,33.58
2023-03-19T22:43:16.420Z,37.85
2023-03-19T22:45:43.471Z,36.60
2023-03-19T22:48:14.903Z,38.17
2023-03-19T22:50:42.713Z,36.58
2023-03-19T22:53:29.932Z,40.50
2023-03-19T22:55:59.313Z,34.42
2023-03-19T22:58:25.842Z,28.73
2023-03-19T23:00:52.936Z,33.13
2023-03-19T23:03:22.628Z,35.10
2023-03-19T23:05:54.992Z,33.22
2023-03-19T23:08:22.794Z,34.05
2023-03-19T23:10:51.187Z,36.17
2023-03-19T23:13:17.756Z,36.58
2023-03-19T23:15:45.184Z,35.15
2023-03-19T23:18:21.453Z,36.58
2023-03-19T23:20:48.276Z,40.25
2023-03-19T23:23:21.111Z,38.35
2023-03-19T23:25:47.949Z,41.13
2023-03-19T23:28:20.813Z,40.83
2023-03-19T23:30:50.089Z,42.03
2023-03-19T23:33:18.268Z,38.00
2023-03-19T23:35:45.639Z,41.03
2023-03-19T23:38:12.839Z,40.35
2023-03-19T23:40:41.323Z,42.42
2023-03-19T23:43:25.114Z,44.60
2023-03-19T23:45:53.190Z,41.72
2023-03-19T23:48:22.931Z,37.20
2023-03-19T23:50:49.491Z,41.50
2023-03-19T23:53:24.512Z,40.97
2023-03-19T23:55:59.886Z,42.22
2023-03-19T23:58:47.748Z,43.13
